Culleredo, Spain
Current Conditions -  °F | °C
As of 12:00 AM on Thursday 18 Dec 2014 (Local Time) from LECO Reporting Station
Broken Clouds Broken Clouds  
Wind Chill: 50°   Ceiling: 3000
Heat Index: 50°   Visibility: 6mi
Dew Point: 50°   Wind: 1mph
Humidity: 100%   Direction: NA
Pressure: 30.45"   Gusts: NA
Location:  43.29°N, 8.39°W
Report Text: LECO 172300Z VRB01KT 9999 FEW017 BKN030 10/10 Q1031 NOSIG
Loading
Personal Weather Stations






























Interactive Weather Map New forecast layout! Learn more

10-Day Weather Forecast

Advertisements
Track Severe Weather on mobile